Time;durP1;ratioP1;P1;durP2;ratioP2;P2;SDS_P1;SDS_P2;PMS_P1;PMS_P2;Temp;Humidity;BMP_temperature;BMP_pressure;BME280_temperature;BME280_humidity;BME280_pressure;Samples;Min_cycle;Max_cycle;Signal;HPM_P1;HPM_P2
2022/04/21 00:02:59;;;;;;;37.28;24.75;;;;;;;8.07;100.00;98368.03;2235407;79;21512;-90
2022/04/21 00:06:01;;;;;;;35.98;24.12;;;;;;;8.10;100.00;98365.08;2268692;79;20961;-91
2022/04/21 00:09:02;;;;;;;33.13;22.45;;;;;;;8.20;100.00;98363.05;2267936;78;20981;-90
2022/04/21 00:12:04;;;;;;;31.60;23.12;;;;;;;8.29;100.00;98367.23;2268422;78;20989;-89
2022/04/21 00:15:06;;;;;;;36.20;23.83;;;;;;;8.37;100.00;98363.30;2248258;78;20932;-89
2022/04/21 00:18:08;;;;;;;47.98;27.20;;;;;;;8.44;100.00;98359.02;2224494;80;20945;-88
2022/04/21 00:21:09;;;;;;;44.05;25.25;;;;;;;8.39;100.00;98366.54;2266440;79;20980;-89
2022/04/21 00:24:11;;;;;;;34.48;23.67;;;;;;;8.26;100.00;98360.58;2268403;79;21528;-89
2022/04/21 00:27:13;;;;;;;53.55;28.17;;;;;;;8.15;100.00;98367.99;2249508;79;21026;-90
2022/04/21 00:30:15;;;;;;;50.08;28.17;;;;;;;8.08;100.00;98361.83;2224310;80;20991;-90
2022/04/21 00:33:16;;;;;;;57.05;30.17;;;;;;;8.08;100.00;98361.34;2224415;80;20960;-90
2022/04/21 00:36:18;;;;;;;36.48;23.98;;;;;;;8.08;100.00;98356.62;2227713;79;21017;-89
2022/04/21 00:39:20;;;;;;;36.40;23.73;;;;;;;8.08;100.00;98347.49;2267442;78;20933;-88
2022/04/21 00:42:22;;;;;;;38.30;24.98;;;;;;;8.03;100.00;98357.12;2268437;79;21512;-89
2022/04/21 00:45:23;;;;;;;43.68;27.05;;;;;;;8.01;100.00;98355.67;2268618;78;20997;-89
2022/04/21 00:48:25;;;;;;;38.60;25.08;;;;;;;8.04;100.00;98356.63;2268884;78;20993;-88
2022/04/21 00:51:27;;;;;;;32.23;23.38;;;;;;;8.05;100.00;98352.56;2185856;82;21050;-88
2022/04/21 00:54:29;;;;;;;41.23;24.92;;;;;;;8.02;100.00;98354.20;2185850;82;20958;-88
2022/04/21 00:57:31;;;;;;;39.30;24.40;;;;;;;8.11;100.00;98357.56;2185794;81;20986;-89
2022/04/21 01:00:32;;;;;;;37.67;24.30;;;;;;;8.12;100.00;98355.28;2188014;79;21493;-89
2022/04/21 01:03:34;;;;;;;34.25;23.35;;;;;;;8.09;100.00;98351.22;2268406;78;21073;-88
2022/04/21 01:06:36;;;;;;;38.28;25.40;;;;;;;8.06;100.00;98354.19;2268429;78;20961;-92
2022/04/21 01:09:38;;;;;;;33.53;23.75;;;;;;;8.05;100.00;98353.88;2267755;78;21060;-89
2022/04/21 01:12:39;;;;;;;33.98;24.07;;;;;;;8.11;100.00;98347.95;2267450;79;20945;-89
2022/04/21 01:15:41;;;;;;;35.17;24.00;;;;;;;8.15;100.00;98354.95;2238145;79;21065;-89
2022/04/21 01:18:43;;;;;;;35.20;24.05;;;;;;;8.11;100.00;98343.23;2225707;78;20980;-88
2022/04/21 01:21:45;;;;;;;32.85;23.47;;;;;;;8.11;100.00;98351.05;2218150;80;21152;-89
2022/04/21 01:24:47;;;;;;;38.08;23.27;;;;;;;8.09;100.00;98350.41;2198378;80;20996;-89
2022/04/21 01:27:48;;;;;;;33.67;24.30;;;;;;;8.02;100.00;98350.28;2232166;80;21617;-89
2022/04/21 01:30:50;;;;;;;33.48;23.07;;;;;;;8.06;100.00;98350.77;2232145;80;21411;-88
2022/04/21 01:33:52;;;;;;;37.85;23.15;;;;;;;8.01;100.00;98355.18;2232068;80;20944;-88
2022/04/21 01:43:34;;;;;;;38.10;25.12;;;;;;;7.81;100.00;98353.98;2192399;81;22084;-87
2022/04/21 01:46:36;;;;;;;33.78;24.15;;;;;;;7.80;100.00;98347.97;2195423;80;20992;-88
2022/04/21 01:49:38;;;;;;;33.53;22.85;;;;;;;7.83;100.00;98344.20;2232149;80;20953;-89
2022/04/21 01:52:40;;;;;;;36.08;23.98;;;;;;;7.87;100.00;98358.04;2232115;80;20960;-89
2022/04/21 01:55:41;;;;;;;36.38;24.85;;;;;;;7.93;100.00;98350.81;2232137;80;21052;-88
2022/04/21 01:58:44;;;;;;;35.40;24.70;;;;;;;7.91;100.00;98350.67;2231874;80;20984;-88
2022/04/21 02:01:46;;;;;;;36.60;24.72;;;;;;;7.89;100.00;98343.53;2155187;83;21062;-88
2022/04/21 02:04:48;;;;;;;31.85;21.73;;;;;;;7.86;100.00;98338.63;2154906;83;20933;-88
2022/04/21 02:07:50;;;;;;;34.40;22.90;;;;;;;7.94;100.00;98337.29;2155078;83;20976;-87
2022/04/21 02:10:52;;;;;;;35.03;24.00;;;;;;;7.91;100.00;98345.47;2166503;80;20906;-89
2022/04/21 02:13:53;;;;;;;34.27;21.80;;;;;;;7.90;100.00;98345.95;2232262;80;20953;-88
2022/04/21 02:16:55;;;;;;;32.00;22.50;;;;;;;7.85;100.00;98345.64;2232292;80;20984;-89
2022/04/21 02:19:57;;;;;;;38.98;24.20;;;;;;;7.78;100.00;98343.42;2231383;80;21016;-89
2022/04/21 02:22:59;;;;;;;33.05;23.15;;;;;;;7.75;100.00;98341.14;2250672;78;21108;-89
2022/04/21 02:26:01;;;;;;;36.20;22.22;;;;;;;7.76;100.00;98336.24;2268826;78;20984;-88
2022/04/21 02:29:02;;;;;;;40.70;24.57;;;;;;;7.76;100.00;98340.15;2243270;78;20922;-88
2022/04/21 02:32:04;;;;;;;43.87;25.72;;;;;;;7.78;100.00;98335.61;2222560;80;20973;-88
2022/04/21 02:35:09;;;;;;;40.65;24.23;;;;;;;7.86;100.00;98338.17;2222467;80;22091;-87
2022/04/21 02:38:11;;;;;;;39.50;23.70;;;;;;;7.85;100.00;98333.10;2222921;80;21001;-88
2022/04/21 02:41:13;;;;;;;34.80;23.22;;;;;;;7.83;100.00;98325.95;2224667;80;20972;-88
2022/04/21 02:44:15;;;;;;;33.35;22.02;;;;;;;7.77;100.00;98325.33;2224659;80;20988;-88
2022/04/21 02:47:16;;;;;;;32.80;22.22;;;;;;;7.75;100.00;98322.08;2224935;80;20956;-88
2022/04/21 02:50:18;;;;;;;33.20;23.18;;;;;;;7.71;100.00;98319.02;2258619;79;20961;-88
2022/04/21 02:57:19;;;;;;;36.48;24.65;;;;;;;7.80;100.00;98321.09;2268650;79;20910;-87
2022/04/21 02:59:44;;;;;;;36.65;24.37;;;;;;;7.94;100.00;98321.65;2265839;79;20990;-89
2022/04/21 03:02:45;;;;;;;39.65;24.90;;;;;;;7.89;100.00;98311.75;2266238;78;21072;-92
2022/04/21 03:05:47;;;;;;;37.38;24.32;;;;;;;7.84;100.00;98315.84;2263591;78;21060;-91
2022/04/21 03:08:49;;;;;;;36.73;24.63;;;;;;;7.70;100.00;98314.80;2232787;78;20920;-91
2022/04/21 03:11:50;;;;;;;39.38;24.23;;;;;;;7.68;100.00;98318.88;2222309;80;20956;-90
2022/04/21 03:14:52;;;;;;;34.40;23.67;;;;;;;7.65;100.00;98324.41;2221820;80;21027;-87
2022/04/21 03:17:54;;;;;;;33.30;23.20;;;;;;;7.59;100.00;98320.36;2223885;79;20985;-88
2022/04/21 03:24:21;;;;;;;37.93;23.57;;;;;;;7.63;100.00;98318.56;2269929;78;21113;-85
2022/04/21 03:27:23;;;;;;;38.10;23.55;;;;;;;7.64;100.00;98316.77;2271376;78;21409;-86
2022/04/21 03:30:25;;;;;;;38.60;24.18;;;;;;;7.69;100.00;98318.38;2272570;78;21044;-86
2022/04/21 03:33:28;;;;;;;41.95;26.33;;;;;;;7.72;100.00;98319.83;2271640;78;21028;-89
2022/04/21 03:36:30;;;;;;;41.80;27.48;;;;;;;7.75;100.00;98316.37;2253087;78;21482;-88
2022/04/21 03:39:32;;;;;;;35.83;24.27;;;;;;;7.78;100.00;98315.25;2232292;80;20936;-87
2022/04/21 03:42:34;;;;;;;34.78;23.87;;;;;;;7.78;100.00;98320.46;2232386;80;21523;-87
2022/04/21 03:45:36;;;;;;;38.38;27.27;;;;;;;7.66;100.00;98330.43;2232869;78;20877;-87
2022/04/21 03:48:38;;;;;;;41.83;25.48;;;;;;;7.61;100.00;98326.23;2232269;79;21040;-88
2022/04/21 03:51:40;;;;;;;39.00;25.08;;;;;;;7.63;100.00;98334.69;2232531;80;20932;-87
2022/04/21 03:54:42;;;;;;;39.67;25.50;;;;;;;7.64;100.00;98345.43;2232312;80;20960;-87
2022/04/21 03:57:44;;;;;;;39.80;27.25;;;;;;;7.65;100.00;98342.65;2263748;78;20960;-85
2022/04/21 04:00:45;;;;;;;40.28;26.95;;;;;;;7.59;100.00;98342.50;2272228;78;21083;-88
2022/04/21 04:03:48;;;;;;;46.55;27.73;;;;;;;7.57;100.00;98332.26;2269904;78;20969;-89
2022/04/21 04:13:30;;;;;;;43.55;26.95;;;;;;;7.51;100.00;98326.44;2230510;80;21040;-88
2022/04/21 04:16:33;;;;;;;41.65;24.35;;;;;;;7.49;100.00;98327.08;2230592;78;21280;-89
2022/04/21 04:19:35;;;;;;;42.27;25.25;;;;;;;7.51;100.00;98329.54;2230485;80;21009;-86
2022/04/21 04:22:37;;;;;;;33.78;22.58;;;;;;;7.52;100.00;98324.65;2223627;79;21612;-89
2022/04/21 04:25:39;;;;;;;41.85;26.62;;;;;;;7.46;100.00;98321.41;2189904;81;20975;-86
2022/04/21 04:28:41;;;;;;;43.20;27.32;;;;;;;7.39;100.00;98323.38;2197395;80;21075;-87
2022/04/21 04:31:43;;;;;;;40.98;26.85;;;;;;;7.37;100.00;98324.53;2189812;81;21130;-86
2022/04/21 04:34:44;;;;;;;40.88;27.27;;;;;;;7.30;100.00;98323.08;2190672;81;21043;-88
2022/04/21 04:37:46;;;;;;;48.13;29.45;;;;;;;7.37;100.00;98325.83;2211097;80;21013;-95
2022/04/21 04:40:48;;;;;;;41.60;26.52;;;;;;;7.49;100.00;98326.27;2194360;80;21032;-88
2022/04/21 04:43:50;;;;;;;44.67;26.87;;;;;;;7.59;100.00;98329.48;2189930;81;21059;-87
2022/04/21 04:46:51;;;;;;;43.65;27.67;;;;;;;7.62;100.00;98335.19;2200628;80;20976;-88
2022/04/21 04:49:53;;;;;;;43.05;27.45;;;;;;;7.75;100.00;98335.11;2232950;80;21076;-87
2022/04/21 04:52:55;;;;;;;44.40;27.37;;;;;;;7.84;100.00;98336.70;2232205;80;20997;-86
2022/04/21 04:55:57;;;;;;;45.75;28.35;;;;;;;7.89;100.00;98335.21;2230400;80;21029;-85
2022/04/21 04:58:58;;;;;;;44.53;28.67;;;;;;;7.88;100.00;98341.91;2229380;80;21025;-84
2022/04/21 05:02:01;;;;;;;44.23;28.20;;;;;;;7.94;100.00;98335.49;2229302;80;21060;-85
2022/04/21 05:05:03;;;;;;;42.85;28.27;;;;;;;7.96;100.00;98337.95;2229185;80;21527;-86
2022/04/21 05:08:06;;;;;;;44.08;29.25;;;;;;;8.02;100.00;98338.55;2205482;80;21055;-85
2022/04/21 05:11:09;;;;;;;42.33;28.45;;;;;;;8.02;100.00;98330.73;2189590;81;21083;-87
2022/04/21 05:14:11;;;;;;;43.28;28.07;;;;;;;8.09;100.00;98336.08;2189631;81;21135;-85
2022/04/21 05:17:13;;;;;;;43.45;29.15;;;;;;;8.11;100.00;98328.88;2201338;80;21083;-86
2022/04/21 05:20:14;;;;;;;45.55;28.15;;;;;;;8.22;100.00;98327.98;2221514;80;21055;-84
2022/04/21 05:23:16;;;;;;;46.02;28.80;;;;;;;8.39;100.00;98324.80;2228641;78;21050;-84
2022/04/21 05:26:18;;;;;;;41.18;27.60;;;;;;;8.37;100.00;98330.69;2265753;78;21017;-85
2022/04/21 05:32:40;;;;;;;41.48;28.52;;;;;;;8.48;100.00;98332.07;2265516;79;20961;-86
2022/04/21 05:35:42;;;;;;;41.75;26.87;;;;;;;8.55;100.00;98337.72;2265380;78;21021;-86
2022/04/21 05:38:46;;;;;;;44.00;27.42;;;;;;;8.67;100.00;98325.55;2265397;78;21017;-86
2022/04/21 05:41:48;;;;;;;39.10;25.90;;;;;;;8.70;100.00;98329.95;2261524;78;21004;-87
2022/04/21 05:44:49;;;;;;;37.15;25.10;;;;;;;8.71;100.00;98323.73;2221752;80;20945;-86
2022/04/21 05:47:51;;;;;;;38.53;23.90;;;;;;;8.76;100.00;98329.71;2221780;80;21092;-86
2022/04/21 05:50:53;;;;;;;40.17;27.50;;;;;;;8.79;100.00;98321.05;2221820;80;21049;-87
2022/04/21 05:53:55;;;;;;;35.98;24.18;;;;;;;8.86;100.00;98317.71;2221859;79;21435;-88
2022/04/21 05:56:57;;;;;;;38.30;24.63;;;;;;;8.95;100.00;98314.84;2222133;80;20976;-85
2022/04/21 05:59:59;;;;;;;35.83;24.35;;;;;;;8.98;99.68;98317.61;2221996;80;20988;-85
2022/04/21 06:03:01;;;;;;;34.40;23.22;;;;;;;8.96;99.33;98316.95;2230166;79;21023;-87
2022/04/21 06:06:02;;;;;;;35.03;23.52;;;;;;;8.88;99.22;98314.45;2221996;80;21047;-87
2022/04/21 06:09:04;;;;;;;34.53;23.73;;;;;;;8.94;99.93;98319.75;2221833;80;20952;-86
2022/04/21 06:12:09;;;;;;;34.10;22.17;;;;;;;8.94;98.83;98316.33;2226636;79;20889;-86
2022/04/21 06:15:10;;;;;;;32.55;21.80;;;;;;;8.89;98.47;98319.49;2264591;78;20930;-87
2022/04/21 06:18:12;;;;;;;39.08;24.23;;;;;;;8.83;98.28;98324.11;2265693;78;21016;-86
2022/04/21 06:21:13;;;;;;;33.00;22.00;;;;;;;8.68;98.06;98325.38;2234246;79;20937;-87
2022/04/21 06:24:15;;;;;;;34.35;23.35;;;;;;;8.60;98.30;98328.58;2219914;80;21076;-87
2022/04/21 06:27:17;;;;;;;34.88;22.30;;;;;;;8.61;98.92;98322.36;2219875;80;20989;-87
2022/04/21 06:30:19;;;;;;;34.20;21.73;;;;;;;8.62;98.30;98317.45;2235507;79;21333;-87
2022/04/21 06:33:21;;;;;;;31.40;20.92;;;;;;;8.54;98.29;98324.86;2265760;79;21064;-86
2022/04/21 06:36:22;;;;;;;36.15;23.90;;;;;;;8.46;98.53;98323.13;2266358;78;21005;-85
2022/04/21 06:39:24;;;;;;;33.70;22.42;;;;;;;8.47;99.51;98331.75;2265832;78;21026;-86
2022/04/21 06:42:26;;;;;;;31.73;21.35;;;;;;;8.53;99.17;98325.35;2225156;79;21024;-85
2022/04/21 06:48:48;;;;;;;31.30;21.70;;;;;;;8.62;99.26;98328.70;2223286;79;20945;-86
2022/04/21 06:51:50;;;;;;;32.75;22.35;;;;;;;8.75;98.80;98324.98;2219843;80;21464;-86
2022/04/21 06:54:52;;;;;;;31.05;21.80;;;;;;;8.89;98.47;98326.52;2221155;80;21109;-87
2022/04/21 06:57:53;;;;;;;29.75;19.35;;;;;;;9.11;98.35;98325.63;2235503;79;20964;-88
2022/04/21 07:00:55;;;;;;;29.10;19.90;;;;;;;9.36;97.85;98323.06;2222277;78;20967;-85
2022/04/21 07:03:57;;;;;;;27.27;19.52;;;;;;;9.56;96.61;98321.20;2238847;79;21513;-88
2022/04/21 07:06:58;;;;;;;26.42;18.42;;;;;;;9.76;96.61;98325.35;2232254;79;21029;-87
2022/04/21 07:10:00;;;;;;;25.82;18.25;;;;;;;9.92;95.47;98335.10;2221942;80;20964;-87
2022/04/21 07:13:02;;;;;;;22.70;15.75;;;;;;;10.05;95.29;98338.84;2248280;79;21527;-87
2022/04/21 07:16:04;;;;;;;24.85;17.87;;;;;;;10.13;93.13;98338.73;2264724;78;20937;-89
2022/04/21 07:19:06;;;;;;;24.37;17.48;;;;;;;10.09;92.66;98347.96;2231931;79;20930;-87
2022/04/21 07:22:08;;;;;;;28.30;18.48;;;;;;;10.13;93.34;98351.81;2243044;79;21049;-87
2022/04/21 07:25:10;;;;;;;27.02;18.77;;;;;;;10.11;93.18;98349.39;2270176;78;21513;-85
2022/04/21 07:28:12;;;;;;;27.50;19.90;;;;;;;10.17;93.26;98348.66;2258042;78;21032;-87
2022/04/21 07:31:14;;;;;;;29.57;20.68;;;;;;;10.28;92.60;98350.50;2232331;80;20931;-83
2022/04/21 07:34:15;;;;;;;26.05;17.90;;;;;;;10.44;93.10;98347.64;2232509;80;20948;-83
2022/04/21 07:37:17;;;;;;;25.60;18.95;;;;;;;10.56;91.28;98348.75;2232469;80;20960;-83
2022/04/21 07:40:20;;;;;;;24.40;17.17;;;;;;;10.63;91.43;98354.86;2236424;78;21023;-84
2022/04/21 07:43:22;;;;;;;22.75;16.82;;;;;;;10.74;91.22;98356.16;2231742;78;21440;-81
2022/04/21 07:46:23;;;;;;;26.15;18.70;;;;;;;10.76;90.22;98358.89;2231526;80;20971;-84
2022/04/21 07:56:06;;;;;;;23.35;17.25;;;;;;;10.82;89.29;98370.43;2270032;78;21060;-84
2022/04/21 07:59:07;;;;;;;23.77;17.10;;;;;;;10.83;89.18;98368.92;2269909;78;20988;-83
2022/04/21 08:02:09;;;;;;;24.18;17.42;;;;;;;10.76;89.27;98357.58;2248868;78;21445;-84
2022/04/21 08:05:11;;;;;;;26.07;17.30;;;;;;;10.95;89.46;98373.14;2253229;78;21003;-83
2022/04/21 08:08:13;;;;;;;19.90;15.53;;;;;;;11.03;89.16;98356.48;2238730;78;21437;-85
2022/04/21 08:11:15;;;;;;;19.50;14.25;;;;;;;11.13;88.44;98362.19;2262658;78;21558;-85
2022/04/21 08:14:17;;;;;;;22.37;16.85;;;;;;;11.11;87.56;98364.20;2265699;78;21443;-87
2022/04/21 08:17:19;;;;;;;19.85;14.05;;;;;;;10.94;87.25;98364.16;2263391;78;20973;-84
2022/04/21 08:20:21;;;;;;;24.72;17.17;;;;;;;10.82;87.38;98365.20;2268480;78;20985;-84
2022/04/21 08:23:22;;;;;;;20.52;15.50;;;;;;;10.68;87.51;98356.41;2269780;78;21108;-83
2022/04/21 08:32:50;;;;;;;23.77;17.35;;;;;;;10.62;88.66;98359.80;2192580;81;20974;-83
2022/04/21 08:35:57;;;;;;;23.42;16.48;;;;;;;10.59;88.52;98365.88;2192651;81;21535;-84
2022/04/21 08:38:55;;;;;;;22.77;17.57;;;;;;;10.62;88.56;98362.91;2192664;81;21094;-84
2022/04/21 08:41:57;;;;;;;25.15;17.12;;;;;;;10.54;87.83;98364.66;2192844;81;21023;-85
2022/04/21 08:44:59;;;;;;;23.57;15.45;;;;;;;10.61;88.60;98363.41;2192838;81;21061;-85
2022/04/21 08:48:01;;;;;;;21.97;16.67;;;;;;;10.61;87.67;98358.68;2192766;81;21595;-84
2022/04/21 08:51:03;;;;;;;22.82;17.10;;;;;;;10.60;87.71;98353.10;2192739;81;21589;-85
2022/04/21 08:54:05;;;;;;;22.60;15.90;;;;;;;10.62;87.88;98347.20;2192693;81;22175;-85
2022/04/21 08:57:07;;;;;;;21.90;16.90;;;;;;;10.75;87.35;98348.11;2192644;81;21050;-83
2022/04/21 09:00:08;;;;;;;20.72;16.48;;;;;;;10.86;87.68;98349.90;2192589;81;21538;-82
2022/04/21 09:03:10;;;;;;;20.17;15.80;;;;;;;11.00;87.69;98352.44;2192446;81;21093;-87
2022/04/21 09:06:12;;;;;;;20.10;16.95;;;;;;;11.11;86.64;98358.95;2221561;78;21056;-86
2022/04/21 09:09:14;;;;;;;18.48;14.87;;;;;;;11.24;86.59;98356.91;2270030;78;20933;-85
2022/04/21 09:12:15;;;;;;;19.77;15.25;;;;;;;11.19;86.20;98361.44;2270200;78;21452;-90
2022/04/21 09:15:17;;;;;;;17.73;14.98;;;;;;;11.01;86.03;98363.22;2270212;78;21004;-88
2022/04/21 09:18:19;;;;;;;18.77;16.25;;;;;;;11.05;86.59;98359.70;2270055;78;20953;-89
2022/04/21 09:21:20;;;;;;;19.40;14.95;;;;;;;11.08;87.08;98362.77;2270088;78;20985;-91
2022/04/21 09:24:22;;;;;;;18.27;13.95;;;;;;;11.11;86.27;98362.88;2268482;78;21108;-87
2022/04/21 09:27:24;;;;;;;17.98;15.13;;;;;;;10.91;86.48;98361.94;2267034;78;21001;-86
2022/04/21 09:30:26;;;;;;;19.20;15.85;;;;;;;10.81;87.00;98357.03;2266012;78;21036;-86
2022/04/21 09:33:28;;;;;;;18.48;15.68;;;;;;;10.73;87.29;98361.89;2265841;78;20965;-86
2022/04/21 09:36:29;;;;;;;19.12;14.38;;;;;;;10.82;87.74;98358.14;2265900;78;21568;-87
2022/04/21 09:39:31;;;;;;;17.75;15.05;;;;;;;10.87;87.81;98358.87;2266974;78;20997;-88
2022/04/21 09:42:33;;;;;;;16.82;13.45;;;;;;;11.01;88.58;98355.86;2265609;78;21084;-87
2022/04/21 09:48:55;;;;;;;18.67;15.58;;;;;;;11.40;87.60;98353.48;2265555;79;21109;-86
2022/04/21 09:51:59;;;;;;;20.52;15.85;;;;;;;11.53;88.07;98365.88;2265338;79;21555;-85
2022/04/21 09:55:01;;;;;;;17.37;14.50;;;;;;;11.73;87.72;98356.79;2265660;78;21359;-86
2022/04/21 09:58:03;;;;;;;17.40;14.68;;;;;;;11.92;88.00;98351.34;2265705;79;21068;-87
2022/04/21 10:01:05;;;;;;;15.28;13.68;;;;;;;12.20;86.95;98363.03;2265588;79;21073;-87
2022/04/21 10:04:07;;;;;;;19.00;14.55;;;;;;;12.41;86.21;98356.30;2266063;79;21036;-86
2022/04/21 10:07:09;;;;;;;15.23;13.62;;;;;;;12.48;85.79;98364.20;2267133;78;21103;-86
2022/04/21 10:10:11;;;;;;;18.73;16.73;;;;;;;12.53;85.24;98358.66;2244555;78;20947;-85
2022/04/21 10:13:13;;;;;;;16.62;14.35;;;;;;;12.52;85.36;98365.40;2219833;79;20956;-85
2022/04/21 10:16:16;;;;;;;15.50;12.68;;;;;;;12.42;83.81;98358.42;2220807;79;21077;-84
2022/04/21 10:19:19;;;;;;;17.05;13.95;;;;;;;12.41;84.45;98366.00;2214850;79;20935;-85
2022/04/21 10:22:21;;;;;;;17.85;12.98;;;;;;;12.27;83.38;98359.92;2200652;79;21504;-86
2022/04/21 10:25:24;;;;;;;15.70;14.00;;;;;;;12.16;84.01;98361.80;2221479;79;21529;-85
2022/04/21 10:28:26;;;;;;;15.80;13.95;;;;;;;12.24;84.88;98366.36;2208055;80;21668;-84
2022/04/21 10:31:28;;;;;;;15.05;12.55;;;;;;;12.52;84.73;98366.72;2230725;79;20936;-85
2022/04/21 10:34:31;;;;;;;16.60;14.80;;;;;;;12.68;83.06;98355.83;2205857;79;20990;-84
2022/04/21 10:37:33;;;;;;;15.53;12.03;;;;;;;12.59;82.08;98360.16;2220306;80;20991;-85
2022/04/21 10:40:35;;;;;;;16.75;14.07;;;;;;;12.48;82.24;98362.88;2225012;79;21026;-85
2022/04/21 10:43:37;;;;;;;14.90;13.18;;;;;;;12.24;82.55;98360.30;2190923;80;21046;-84
2022/04/21 10:46:38;;;;;;;16.27;13.10;;;;;;;12.12;83.83;98362.70;2216618;79;21047;-86
2022/04/21 10:49:40;;;;;;;16.40;14.07;;;;;;;12.07;83.62;98368.23;2208782;79;20991;-85
2022/04/21 10:59:04;;;;;;;17.35;14.58;;;;;;;11.71;84.53;98364.05;2233915;79;21045;-85
2022/04/21 11:02:06;;;;;;;16.20;13.75;;;;;;;11.60;85.19;98369.31;2232624;79;21090;-84
2022/04/21 11:05:08;;;;;;;18.85;13.05;;;;;;;11.69;85.76;98366.84;2228237;79;20915;-84
2022/04/21 11:08:10;;;;;;;18.67;13.78;;;;;;;11.73;85.72;98367.28;2218086;79;20950;-84
2022/04/21 11:11:13;;;;;;;17.17;12.80;;;;;;;11.63;85.96;98369.45;2232340;79;21031;-85
2022/04/21 11:14:15;;;;;;;12.73;11.28;;;;;;;11.49;86.37;98371.69;2237582;79;21131;-83
2022/04/21 11:17:17;;;;;;;17.00;13.95;;;;;;;11.32;86.70;98369.36;2228581;79;21068;-83
2022/04/21 11:20:18;;;;;;;19.23;14.90;;;;;;;11.25;87.79;98379.02;2219065;79;21555;-85
2022/04/21 11:23:20;;;;;;;18.23;14.73;;;;;;;11.28;87.98;98374.70;2230375;79;21001;-84
2022/04/21 11:26:22;;;;;;;15.35;12.63;;;;;;;11.40;88.33;98364.48;2236166;79;20978;-86
2022/04/21 11:29:24;;;;;;;17.92;13.93;;;;;;;11.37;88.06;98372.23;2230208;79;21537;-84
2022/04/21 11:32:26;;;;;;;17.90;14.18;;;;;;;11.43;89.43;98364.58;2218093;79;20922;-84
2022/04/21 11:35:28;;;;;;;19.73;14.90;;;;;;;11.53;88.92;98360.63;2222686;79;21482;-84
2022/04/21 11:38:30;;;;;;;18.10;14.93;;;;;;;11.59;88.72;98367.70;2235347;79;20995;-83
2022/04/21 11:41:32;;;;;;;16.37;13.70;;;;;;;11.58;89.34;98361.34;2229446;79;20953;-84
2022/04/21 11:44:34;;;;;;;14.45;12.88;;;;;;;11.62;89.19;98365.22;2217718;79;20962;-85
2022/04/21 11:47:36;;;;;;;15.05;13.45;;;;;;;11.64;89.14;98366.63;2220867;79;20991;-85
2022/04/21 11:50:38;;;;;;;15.63;13.90;;;;;;;11.63;89.43;98362.89;2230450;79;20994;-84
2022/04/21 11:53:43;;;;;;;13.35;11.68;;;;;;;11.73;89.17;98361.23;2234011;79;21477;-84
2022/04/21 11:56:45;;;;;;;19.70;15.75;;;;;;;11.85;89.10;98360.99;2223106;79;21096;-84
2022/04/21 11:59:46;;;;;;;19.50;15.10;;;;;;;11.95;89.30;98362.23;2215644;79;21582;-84
2022/04/21 12:09:28;;;;;;;19.17;14.95;;;;;;;12.26;89.28;98365.38;2219203;79;21059;-84
2022/04/21 12:12:30;;;;;;;17.50;15.23;;;;;;;12.48;87.62;98358.44;2234941;79;21359;-84
2022/04/21 12:15:32;;;;;;;12.75;11.43;;;;;;;12.63;87.54;98355.64;2231960;79;20953;-84
2022/04/21 12:18:34;;;;;;;11.57;10.38;;;;;;;12.74;87.31;98356.85;2224653;79;20990;-84
2022/04/21 12:21:36;;;;;;;12.45;10.85;;;;;;;12.83;85.28;98357.46;2221786;79;21010;-84
2022/04/21 12:24:38;;;;;;;14.07;12.60;;;;;;;12.62;85.41;98353.19;2230404;79;21497;-84
2022/04/21 12:27:40;;;;;;;15.28;12.82;;;;;;;12.44;86.38;98357.73;2242953;79;20922;-84
2022/04/21 12:30:42;;;;;;;15.75;14.15;;;;;;;12.24;86.30;98361.11;2228697;79;21140;-85
2022/04/21 12:33:44;;;;;;;17.87;14.78;;;;;;;12.18;87.49;98352.73;2226827;79;20928;-84
2022/04/21 12:36:46;;;;;;;15.45;12.60;;;;;;;12.17;86.31;98350.31;2252344;79;21461;-85
2022/04/21 12:39:47;;;;;;;15.93;11.57;;;;;;;12.09;86.46;98346.55;2226003;79;20925;-85
2022/04/21 12:42:50;;;;;;;16.97;13.28;;;;;;;12.01;87.08;98351.47;2223819;79;20948;-84
2022/04/21 12:45:52;;;;;;;12.90;11.50;;;;;;;11.92;88.00;98349.53;2218969;79;20947;-84
2022/04/21 12:48:54;;;;;;;13.65;11.28;;;;;;;11.84;87.31;98353.63;2235430;79;21028;-84
2022/04/21 12:51:55;;;;;;;13.20;10.32;;;;;;;11.65;87.54;98353.83;2226587;79;21016;-85
2022/04/21 12:54:57;;;;;;;11.85;10.58;;;;;;;11.66;88.35;98358.56;2252251;79;21034;-84
2022/04/21 12:57:59;;;;;;;12.45;9.80;;;;;;;11.65;87.78;98355.14;2223730;79;21163;-85
2022/04/21 13:01:05;;;;;;;12.95;11.53;;;;;;;11.61;87.92;98360.47;2228639;79;21620;-84
2022/04/21 13:04:05;;;;;;;13.55;11.28;;;;;;;11.55;88.63;98358.62;2229726;79;21040;-84
2022/04/21 13:07:07;;;;;;;14.58;11.78;;;;;;;11.55;88.57;98359.12;2221411;79;21039;-84
2022/04/21 13:10:09;;;;;;;14.30;10.48;;;;;;;11.43;88.50;98359.34;2227330;79;20962;-85
2022/04/21 13:13:10;;;;;;;15.95;11.70;;;;;;;11.31;88.76;98357.27;2252324;79;20976;-84
2022/04/21 13:16:12;;;;;;;10.55;9.48;;;;;;;11.30;89.59;98360.08;2239187;79;22141;-84
2022/04/21 13:19:14;;;;;;;12.82;9.70;;;;;;;11.38;89.59;98359.94;2226707;79;20963;-85
2022/04/21 13:22:16;;;;;;;19.17;13.35;;;;;;;11.36;90.08;98360.63;2242979;79;21543;-84
2022/04/21 13:25:18;;;;;;;15.95;11.50;;;;;;;11.36;90.47;98371.13;2230901;79;21429;-86
2022/04/21 13:28:20;;;;;;;13.68;11.28;;;;;;;11.43;90.85;98364.11;2245624;79;20930;-85
2022/04/21 13:34:42;;;;;;;15.70;11.88;;;;;;;11.39;90.86;98361.55;2251065;79;21006;-88
2022/04/21 13:37:44;;;;;;;16.93;12.47;;;;;;;11.36;90.34;98361.44;2252792;78;21492;-84
2022/04/21 13:40:46;;;;;;;14.58;10.40;;;;;;;11.45;90.62;98370.47;2250496;78;20972;-86
2022/04/21 13:43:48;;;;;;;11.65;8.70;;;;;;;11.42;90.14;98359.03;2232860;79;21026;-84
2022/04/21 13:46:50;;;;;;;14.33;10.35;;;;;;;11.33;90.33;98336.09;2232791;80;21487;-86
2022/04/21 13:49:52;;;;;;;13.18;9.90;;;;;;;11.38;90.58;98358.62;2236611;78;21405;-83
2022/04/21 13:52:54;;;;;;;10.23;9.10;;;;;;;11.39;90.76;98363.66;2235336;78;20945;-86
2022/04/21 13:55:56;;;;;;;12.30;9.98;;;;;;;11.46;90.32;98361.09;2244605;78;21036;-83
2022/04/21 13:58:57;;;;;;;12.33;10.35;;;;;;;11.54;90.16;98362.25;2226934;78;20944;-85
2022/04/21 14:01:59;;;;;;;12.90;10.90;;;;;;;11.64;89.80;98367.94;2232522;78;20948;-84
2022/04/21 14:05:01;;;;;;;12.37;9.68;;;;;;;11.64;89.63;98366.63;2243174;78;21027;-83
2022/04/21 14:08:03;;;;;;;10.35;9.13;;;;;;;11.63;89.74;98365.02;2242455;78;21496;-87
2022/04/21 14:11:05;;;;;;;11.50;10.32;;;;;;;11.56;89.54;98372.53;2261365;78;21321;-88
2022/04/21 14:14:07;;;;;;;12.82;10.60;;;;;;;11.58;90.11;98370.02;2252193;78;20984;-86
2022/04/21 14:17:08;;;;;;;17.70;12.33;;;;;;;11.63;89.89;98369.45;2242873;78;20949;-86
2022/04/21 14:20:10;;;;;;;12.07;9.63;;;;;;;11.69;90.41;98360.79;2237341;78;20897;-86
2022/04/21 14:23:12;;;;;;;10.60;9.10;;;;;;;11.74;89.61;98368.89;2233135;78;21615;-91
2022/04/21 14:26:14;;;;;;;14.38;10.82;;;;;;;11.75;89.34;98370.51;2233246;78;21059;-86
2022/04/21 14:29:16;;;;;;;12.95;10.85;;;;;;;11.66;89.46;98371.17;2226390;80;21484;-89
2022/04/21 14:32:18;;;;;;;14.60;10.88;;;;;;;11.71;89.45;98366.67;2227186;80;21492;-84
2022/04/21 14:35:21;;;;;;;12.60;10.82;;;;;;;11.69;89.41;98372.59;2227150;80;21468;-86
2022/04/21 14:45:03;;;;;;;19.12;13.25;;;;;;;11.64;89.68;98365.83;2225504;80;21065;-89
2022/04/21 14:48:05;;;;;;;22.15;14.78;;;;;;;11.75;89.78;98382.31;2226743;80;21463;-86
2022/04/21 14:51:06;;;;;;;21.55;13.93;;;;;;;11.88;89.53;98374.52;2226140;80;20985;-87
2022/04/21 14:54:08;;;;;;;18.65;13.50;;;;;;;11.96;89.31;98373.55;2225647;80;20975;-83
2022/04/21 14:57:10;;;;;;;15.78;11.25;;;;;;;11.95;89.07;98375.36;2225864;80;20961;-87
2022/04/21 15:00:11;;;;;;;19.87;12.75;;;;;;;11.90;88.36;98380.41;2225529;80;20989;-89
2022/04/21 15:03:13;;;;;;;20.15;14.87;;;;;;;11.83;88.47;98369.56;2225078;80;21036;-88
2022/04/21 15:06:15;;;;;;;24.70;16.85;;;;;;;11.85;88.74;98369.67;2226216;80;21025;-88